createdAt,value
2023-02-04T00:00:55.701Z,23.63
2023-02-04T00:03:22.305Z,23.63
2023-02-04T00:05:48.694Z,23.58
2023-02-04T00:08:15.064Z,23.56
2023-02-04T00:10:41.417Z,23.54
2023-02-04T00:13:07.751Z,23.53
2023-02-04T00:15:34.079Z,23.50
2023-02-04T00:18:00.417Z,23.51
2023-02-04T00:20:26.765Z,23.49
2023-02-04T00:22:53.143Z,23.46
2023-02-04T00:25:19.457Z,23.44
2023-02-04T00:27:46.046Z,23.39
2023-02-04T00:30:12.738Z,23.40
2023-02-04T00:32:39.055Z,23.34
2023-02-04T00:35:05.626Z,23.35
2023-02-04T00:37:32.217Z,23.33
2023-02-04T00:39:58.531Z,23.30
2023-02-04T00:42:24.864Z,23.29
2023-02-04T00:44:51.234Z,23.26
2023-02-04T00:47:17.569Z,23.24
2023-02-04T00:49:43.889Z,23.22
2023-02-04T00:52:10.225Z,23.18
2023-02-04T00:54:36.545Z,23.11
2023-02-04T00:57:03.099Z,23.15
2023-02-04T00:59:29.649Z,23.11
2023-02-04T01:01:55.974Z,23.08
2023-02-04T01:04:23.375Z,23.05
2023-02-04T01:06:49.715Z,23.01
2023-02-04T01:09:16.027Z,23.00
2023-02-04T01:11:42.364Z,22.97
2023-02-04T01:14:08.688Z,22.92
2023-02-04T01:16:35.063Z,22.89
2023-02-04T01:19:01.444Z,22.86
2023-02-04T01:21:27.766Z,22.83
2023-02-04T01:23:54.170Z,22.83
2023-02-04T01:26:20.651Z,22.80
2023-02-04T01:28:46.983Z,22.78
2023-02-04T01:31:13.394Z,22.76
2023-02-04T01:33:39.792Z,22.74
2023-02-04T01:36:06.148Z,22.72
2023-02-04T01:38:32.473Z,22.70
2023-02-04T01:40:58.786Z,22.67
2023-02-04T01:43:25.206Z,22.69
2023-02-04T01:45:51.608Z,22.65
2023-02-04T01:48:20.454Z,22.64
2023-02-04T01:50:47.673Z,22.62
2023-02-04T01:53:14.819Z,22.61
2023-02-04T01:55:41.359Z,22.58
2023-02-04T01:58:09.369Z,22.56
2023-02-04T02:00:35.704Z,22.51
2023-02-04T02:03:03.373Z,22.49
2023-02-04T02:05:39.484Z,22.46
2023-02-04T02:08:05.797Z,22.43
2023-02-04T02:10:32.346Z,22.39
2023-02-04T02:12:58.845Z,22.41
2023-02-04T02:15:25.273Z,22.38
2023-02-04T02:17:52.111Z,22.36
2023-02-04T02:20:18.803Z,22.35
2023-02-04T02:22:58.042Z,22.33
2023-02-04T02:25:24.364Z,22.28
2023-02-04T02:27:50.733Z,22.28
2023-02-04T02:30:17.662Z,22.26
2023-02-04T02:32:44.916Z,22.25
2023-02-04T02:35:11.300Z,22.22
2023-02-04T02:37:37.631Z,22.22
2023-02-04T02:40:03.954Z,22.22
2023-02-04T02:42:30.275Z,22.21
2023-02-04T02:44:56.597Z,22.20
2023-02-04T02:47:22.993Z,22.20
2023-02-04T02:49:50.059Z,22.18
2023-02-04T02:52:16.388Z,22.16
2023-02-04T02:54:42.710Z,22.17
2023-02-04T02:57:12.829Z,22.13
2023-02-04T02:59:39.150Z,22.08
2023-02-04T03:02:06.512Z,22.06
2023-02-04T03:04:34.294Z,22.04
2023-02-04T03:07:00.618Z,22.01
2023-02-04T03:09:26.964Z,22.01
2023-02-04T03:11:53.348Z,21.99
2023-02-04T03:14:19.666Z,21.97
2023-02-04T03:16:46.028Z,21.93
2023-02-04T03:19:12.768Z,21.93
2023-02-04T03:21:39.204Z,21.91
2023-02-04T03:24:05.624Z,21.90
2023-02-04T03:26:31.930Z,21.89
2023-02-04T03:28:58.586Z,21.87
2023-02-04T03:31:25.021Z,21.85
2023-02-04T03:33:51.377Z,21.84
2023-02-04T03:36:17.744Z,21.86
2023-02-04T03:38:44.077Z,21.88
2023-02-04T03:41:10.387Z,21.88
2023-02-04T03:43:36.694Z,21.87
2023-02-04T03:46:03.481Z,21.87
2023-02-04T03:48:30.013Z,21.86
2023-02-04T03:50:56.348Z,21.86
2023-02-04T03:53:22.699Z,21.84
2023-02-04T03:55:49.252Z,21.82
2023-02-04T03:58:15.573Z,21.80
2023-02-04T04:00:41.887Z,21.80
2023-02-04T04:03:08.308Z,21.79
2023-02-04T04:05:34.758Z,21.79
2023-02-04T04:08:01.095Z,21.78
2023-02-04T04:10:29.354Z,21.75
2023-02-04T04:12:55.868Z,21.75
2023-02-04T04:15:22.180Z,21.72
2023-02-04T04:17:48.495Z,21.69
2023-02-04T04:20:14.872Z,21.64
2023-02-04T04:22:41.274Z,21.63
2023-02-04T04:25:07.758Z,21.61
2023-02-04T04:27:34.087Z,21.59
2023-02-04T04:30:00.746Z,21.57
2023-02-04T04:32:27.064Z,21.55
2023-02-04T04:34:53.374Z,21.54
2023-02-04T04:37:19.688Z,21.52
2023-02-04T04:39:45.998Z,21.52
2023-02-04T04:42:12.367Z,21.50
2023-02-04T04:44:38.737Z,21.48
2023-02-04T04:47:05.042Z,21.47
2023-02-04T04:49:31.793Z,21.45
2023-02-04T04:51:58.099Z,21.43
2023-02-04T04:54:24.420Z,21.42
2023-02-04T04:56:50.734Z,21.43
2023-02-04T04:59:17.226Z,21.44
2023-02-04T05:01:43.532Z,21.45
2023-02-04T05:04:09.850Z,21.44
2023-02-04T05:06:36.181Z,21.45
2023-02-04T05:09:02.492Z,21.44
2023-02-04T05:11:28.800Z,21.44
2023-02-04T05:13:55.107Z,21.44
2023-02-04T05:16:21.463Z,21.42
2023-02-04T05:18:47.852Z,21.41
2023-02-04T05:21:14.242Z,21.39
2023-02-04T05:23:40.793Z,21.38
2023-02-04T05:26:07.226Z,21.38
2023-02-04T05:28:33.549Z,21.37
2023-02-04T05:31:00.007Z,21.37
2023-02-04T05:33:27.068Z,21.34
2023-02-04T05:35:53.391Z,21.32
2023-02-04T05:38:19.730Z,21.31
2023-02-04T05:40:46.064Z,21.32
2023-02-04T05:43:12.442Z,21.30
2023-02-04T05:45:38.814Z,21.28
2023-02-04T05:48:05.189Z,21.29
2023-02-04T05:50:31.877Z,21.26
2023-02-04T05:52:58.587Z,21.25
2023-02-04T05:55:24.890Z,21.27
2023-02-04T05:57:51.221Z,21.25
2023-02-04T06:00:17.534Z,21.26
2023-02-04T06:02:44.075Z,21.26
2023-02-04T06:05:10.636Z,21.24
2023-02-04T06:07:37.008Z,21.23
2023-02-04T06:10:03.348Z,21.27
2023-02-04T06:12:29.660Z,21.27
2023-02-04T06:14:56.104Z,21.25
2023-02-04T06:17:22.420Z,21.25
2023-02-04T06:19:48.730Z,21.23
2023-02-04T06:22:15.068Z,21.19
2023-02-04T06:24:41.375Z,21.18
2023-02-04T06:27:07.695Z,21.18
2023-02-04T06:29:34.013Z,21.18
2023-02-04T06:32:00.642Z,21.16
2023-02-04T06:34:27.006Z,21.14
2023-02-04T06:36:53.328Z,21.14
2023-02-04T06:39:21.094Z,21.14
2023-02-04T06:41:47.411Z,21.12
2023-02-04T06:44:13.764Z,21.12
2023-02-04T06:46:40.079Z,21.11
2023-02-04T06:49:06.388Z,21.16
2023-02-04T06:51:33.753Z,21.16
2023-02-04T06:54:00.363Z,21.19
2023-02-04T06:56:29.233Z,21.17
2023-02-04T06:58:55.560Z,21.16
2023-02-04T07:01:21.898Z,21.17
2023-02-04T07:03:48.251Z,21.17
2023-02-04T07:06:14.555Z,21.15
2023-02-04T07:08:41.157Z,21.15
2023-02-04T07:11:07.472Z,21.14
2023-02-04T07:13:33.844Z,21.13
2023-02-04T07:16:00.246Z,21.12
2023-02-04T07:18:26.582Z,21.16
2023-02-04T07:20:52.924Z,21.18
2023-02-04T07:23:19.538Z,21.19
2023-02-04T07:25:45.860Z,21.22
2023-02-04T07:28:12.237Z,21.19
2023-02-04T07:30:38.674Z,21.15
2023-02-04T07:33:05.050Z,21.10
2023-02-04T07:35:31.372Z,21.06
2023-02-04T07:37:57.685Z,21.04
2023-02-04T07:40:24.000Z,21.05
2023-02-04T07:42:50.305Z,21.12
2023-02-04T07:45:16.641Z,21.17
2023-02-04T07:47:42.975Z,21.22
2023-02-04T07:50:09.382Z,21.23
2023-02-04T07:52:35.709Z,21.21
2023-02-04T07:55:02.020Z,21.24
2023-02-04T07:57:29.949Z,21.28
2023-02-04T07:59:56.293Z,21.36
2023-02-04T08:02:22.705Z,21.33
2023-02-04T08:04:49.031Z,21.42
2023-02-04T08:07:15.334Z,21.49
2023-02-04T08:09:41.654Z,21.52
2023-02-04T08:12:07.971Z,21.53
2023-02-04T08:14:34.315Z,21.56
2023-02-04T08:17:00.626Z,21.58
2023-02-04T08:19:26.949Z,21.70
2023-02-04T08:21:53.795Z,21.60
2023-02-04T08:24:20.115Z,21.56
2023-02-04T08:26:46.435Z,21.51
2023-02-04T08:29:12.810Z,21.71
2023-02-04T08:31:39.996Z,21.82
2023-02-04T08:34:06.351Z,21.99
2023-02-04T08:36:32.668Z,22.25
2023-02-04T08:38:58.986Z,22.43
2023-02-04T08:41:25.319Z,22.65
2023-02-04T08:43:51.738Z,22.59
2023-02-04T08:46:18.139Z,22.49
2023-02-04T08:48:44.488Z,22.44
2023-02-04T08:51:10.823Z,22.37
2023-02-04T08:53:37.674Z,22.48
2023-02-04T08:56:04.087Z,22.48
2023-02-04T08:58:30.471Z,22.62
2023-02-04T09:00:56.817Z,22.73
2023-02-04T09:03:23.825Z,22.80
2023-02-04T09:05:50.176Z,22.79
2023-02-04T09:08:16.499Z,22.88
2023-02-04T09:10:42.840Z,22.71
2023-02-04T09:13:11.685Z,22.65
2023-02-04T09:15:38.285Z,22.61
2023-02-04T09:18:11.979Z,22.65
2023-02-04T09:20:39.161Z,22.52
2023-02-04T09:23:08.876Z,22.52
2023-02-04T09:25:35.203Z,22.48
2023-02-04T09:28:01.670Z,22.43
2023-02-04T09:30:28.021Z,22.37
2023-02-04T09:32:54.333Z,22.29
2023-02-04T09:35:20.666Z,22.23
2023-02-04T09:37:46.979Z,22.18
2023-02-04T09:40:14.172Z,22.12
2023-02-04T09:42:40.486Z,22.11
2023-02-04T09:45:07.152Z,22.09
2023-02-04T09:47:33.935Z,22.08
2023-02-04T09:50:00.255Z,22.16
2023-02-04T09:52:27.165Z,22.23
2023-02-04T09:54:53.475Z,22.27
2023-02-04T09:57:19.871Z,22.27
2023-02-04T09:59:46.183Z,22.28
2023-02-04T10:02:25.062Z,22.24
2023-02-04T10:04:51.548Z,22.19
2023-02-04T10:07:17.970Z,22.20
2023-02-04T10:09:44.376Z,22.18
2023-02-04T10:12:10.940Z,22.18
2023-02-04T10:14:37.341Z,22.15
2023-02-04T10:17:03.772Z,22.14
2023-02-04T10:19:30.233Z,22.12
2023-02-04T10:21:56.561Z,22.12
2023-02-04T10:24:26.345Z,22.11
2023-02-04T10:26:52.784Z,22.10
2023-02-04T10:29:20.078Z,22.06
2023-02-04T10:31:47.258Z,22.04
2023-02-04T10:34:15.877Z,22.06
2023-02-04T10:36:44.984Z,22.09
2023-02-04T10:39:12.680Z,22.13
2023-02-04T10:41:40.021Z,22.15
2023-02-04T10:44:12.699Z,22.23
2023-02-04T10:46:39.023Z,22.29
2023-02-04T10:49:05.684Z,22.35
2023-02-04T10:51:32.143Z,22.35
2023-02-04T10:54:16.985Z,22.36
2023-02-04T10:56:43.533Z,22.40
2023-02-04T10:59:17.194Z,22.45
2023-02-04T11:01:43.540Z,22.52
2023-02-04T11:04:10.229Z,22.57
2023-02-04T11:06:36.563Z,22.59
2023-02-04T11:09:04.167Z,22.61
2023-02-04T11:11:30.480Z,22.68
2023-02-04T11:13:56.748Z,22.73
2023-02-04T11:16:23.152Z,22.77
2023-02-04T11:18:50.404Z,22.80
2023-02-04T11:21:22.770Z,22.81
2023-02-04T11:23:49.089Z,22.86
2023-02-04T11:26:21.670Z,22.89
2023-02-04T11:28:51.316Z,22.92
2023-02-04T11:31:20.415Z,23.00
2023-02-04T11:33:46.836Z,23.15
2023-02-04T11:36:14.718Z,23.24
2023-02-04T11:38:49.094Z,23.31
2023-02-04T11:41:25.452Z,23.23
2023-02-04T11:43:52.170Z,23.14
2023-02-04T11:46:19.089Z,23.17
2023-02-04T11:48:45.509Z,23.21
2023-02-04T11:51:13.064Z,23.30
2023-02-04T11:53:39.375Z,23.32
2023-02-04T11:56:05.714Z,23.31
2023-02-04T11:58:32.073Z,23.26
2023-02-04T12:00:58.470Z,23.21
2023-02-04T12:03:30.455Z,23.23
2023-02-04T12:05:57.313Z,23.32
2023-02-04T12:08:23.568Z,23.36
2023-02-04T12:10:50.132Z,23.33
2023-02-04T12:13:17.473Z,23.33
2023-02-04T12:15:44.380Z,23.32
2023-02-04T12:18:12.798Z,23.37
2023-02-04T12:20:39.519Z,23.45
2023-02-04T12:23:06.189Z,23.54
2023-02-04T12:25:32.854Z,23.66
2023-02-04T12:27:59.578Z,23.70
2023-02-04T12:30:26.171Z,23.75
2023-02-04T12:32:52.498Z,23.77
2023-02-04T12:35:18.944Z,23.80
2023-02-04T12:37:45.248Z,23.86
2023-02-04T12:40:15.007Z,23.85
2023-02-04T12:42:41.594Z,23.84
2023-02-04T12:45:08.090Z,23.81
2023-02-04T12:47:34.402Z,23.84
2023-02-04T12:50:00.837Z,23.88
2023-02-04T12:52:27.164Z,23.89
2023-02-04T12:54:53.552Z,23.90
2023-02-04T12:57:19.911Z,23.84
2023-02-04T12:59:46.824Z,23.74
2023-02-04T13:02:13.458Z,23.67
2023-02-04T13:04:40.459Z,23.63
2023-02-04T13:07:07.859Z,23.58
2023-02-04T13:09:34.515Z,23.50
2023-02-04T13:12:00.830Z,23.49
2023-02-04T13:14:27.140Z,23.44
2023-02-04T13:16:53.462Z,23.36
2023-02-04T13:21:46.308Z,23.20
2023-02-04T13:24:12.636Z,23.13
2023-02-04T13:26:38.952Z,23.06
2023-02-04T13:29:05.487Z,23.00
2023-02-04T13:31:31.818Z,22.95
2023-02-04T13:33:58.146Z,22.95
2023-02-04T13:36:26.787Z,22.91
2023-02-04T13:38:53.109Z,22.86
2023-02-04T13:41:19.447Z,22.86
2023-02-04T13:43:45.797Z,22.81
2023-02-04T13:46:12.192Z,22.78
2023-02-04T13:48:38.572Z,22.77
2023-02-04T13:51:06.404Z,22.76
2023-02-04T13:53:32.714Z,22.74
2023-02-04T13:55:59.106Z,22.70
2023-02-04T13:58:25.463Z,22.66
2023-02-04T14:00:51.817Z,22.58
2023-02-04T14:03:18.200Z,22.57
2023-02-04T14:05:44.536Z,22.54
2023-02-04T14:08:10.848Z,22.50
2023-02-04T14:10:38.762Z,22.47
2023-02-04T14:13:05.252Z,22.42
2023-02-04T14:15:31.570Z,22.38
2023-02-04T14:17:57.911Z,22.36
2023-02-04T14:20:24.257Z,22.35
2023-02-04T14:22:50.598Z,22.29
2023-02-04T14:25:16.917Z,22.24
2023-02-04T14:27:43.343Z,22.23
2023-02-04T14:30:16.628Z,22.21
2023-02-04T14:32:43.011Z,22.20
2023-02-04T14:35:09.324Z,22.17
2023-02-04T14:37:35.640Z,22.22
2023-02-04T14:40:01.986Z,22.20
2023-02-04T14:42:28.315Z,22.19
2023-02-04T14:44:54.630Z,22.17
2023-02-04T14:47:20.963Z,22.17
2023-02-04T14:49:47.268Z,22.15
2023-02-04T14:52:14.590Z,22.12
2023-02-04T14:54:41.229Z,22.10
2023-02-04T14:57:11.459Z,22.08
2023-02-04T14:59:40.999Z,22.06
2023-02-04T15:02:07.352Z,22.03
2023-02-04T15:04:33.696Z,22.02
2023-02-04T15:07:00.112Z,21.99
2023-02-04T15:09:26.437Z,21.97
2023-02-04T15:11:52.765Z,21.94
2023-02-04T15:14:19.097Z,21.92
2023-02-04T15:16:48.057Z,21.91
2023-02-04T15:19:14.861Z,21.89
2023-02-04T15:21:41.200Z,21.87
2023-02-04T15:24:07.518Z,21.87
2023-02-04T15:26:33.836Z,21.84
2023-02-04T15:29:00.142Z,21.81
2023-02-04T15:31:27.318Z,21.79
2023-02-04T15:33:53.790Z,21.77
2023-02-04T15:36:20.097Z,21.73
2023-02-04T15:38:46.412Z,21.69
2023-02-04T15:41:12.947Z,21.68
2023-02-04T15:43:39.255Z,21.71
2023-02-04T15:46:05.590Z,21.73
2023-02-04T15:48:32.293Z,21.71
2023-02-04T15:50:58.596Z,21.67
2023-02-04T15:53:25.075Z,21.60
2023-02-04T15:55:51.392Z,21.60
2023-02-04T15:58:17.720Z,21.62
2023-02-04T16:00:44.030Z,21.75
2023-02-04T16:03:10.572Z,21.78
2023-02-04T16:05:36.885Z,21.86
2023-02-04T16:08:03.181Z,21.93
2023-02-04T16:10:29.473Z,21.95
2023-02-04T16:12:59.842Z,22.11
2023-02-04T16:15:26.118Z,22.31
2023-02-04T16:17:52.400Z,22.42
2023-02-04T16:20:18.767Z,22.55
2023-02-04T16:22:45.067Z,22.70
2023-02-04T16:25:11.346Z,22.86
2023-02-04T16:27:37.618Z,22.99
2023-02-04T16:30:04.034Z,23.03
2023-02-04T16:32:33.439Z,23.07
2023-02-04T16:35:00.690Z,23.11
2023-02-04T16:37:27.055Z,23.23
2023-02-04T16:39:53.349Z,23.42
2023-02-04T16:42:19.668Z,23.53
2023-02-04T16:44:45.960Z,23.60
2023-02-04T16:47:12.262Z,23.72
2023-02-04T16:49:38.785Z,23.79
2023-02-04T16:52:05.237Z,23.83
2023-02-04T16:54:31.852Z,23.85
2023-02-04T16:57:00.371Z,23.96
2023-02-04T16:59:27.078Z,24.09
2023-02-04T17:01:53.415Z,24.17
2023-02-04T17:04:19.761Z,24.29
2023-02-04T17:06:46.098Z,24.21
2023-02-04T17:09:12.407Z,24.23
2023-02-04T17:11:38.811Z,24.31
2023-02-04T17:14:06.132Z,24.28
2023-02-04T17:16:32.508Z,24.29
2023-02-04T17:18:58.802Z,24.25
2023-02-04T17:21:27.711Z,24.27
2023-02-04T17:23:55.207Z,24.26
2023-02-04T17:26:23.383Z,24.23
2023-02-04T17:28:50.702Z,24.28
2023-02-04T17:31:17.023Z,24.32
2023-02-04T17:33:43.412Z,24.32
2023-02-04T17:36:10.148Z,24.37
2023-02-04T17:38:36.430Z,24.36
2023-02-04T17:41:02.785Z,24.34
2023-02-04T17:43:29.307Z,24.37
2023-02-04T17:45:55.590Z,24.34
2023-02-04T17:48:21.900Z,24.32
2023-02-04T17:50:48.179Z,24.31
2023-02-04T17:53:14.479Z,24.28
2023-02-04T17:55:40.769Z,24.30
2023-02-04T17:58:10.395Z,24.30
2023-02-04T18:00:36.830Z,24.36
2023-02-04T18:03:03.268Z,24.43
2023-02-04T18:05:30.794Z,24.59
2023-02-04T18:08:01.968Z,24.47
2023-02-04T18:10:33.020Z,24.44
2023-02-04T18:12:59.725Z,24.37
2023-02-04T18:15:27.962Z,24.34
2023-02-04T18:18:17.298Z,24.44
2023-02-04T18:20:43.598Z,24.39
2023-02-04T18:23:16.821Z,24.43
2023-02-04T18:25:43.135Z,24.40
2023-02-04T18:28:16.596Z,24.41
2023-02-04T18:30:43.593Z,24.42
2023-02-04T18:33:23.302Z,24.40
2023-02-04T18:35:52.553Z,24.43
2023-02-04T18:38:28.934Z,24.37
2023-02-04T18:41:15.431Z,24.33
2023-02-04T18:43:41.756Z,24.31
2023-02-04T18:46:16.368Z,24.28
2023-02-04T18:48:51.902Z,24.26
2023-02-04T18:51:25.783Z,24.21
2023-02-04T18:53:52.595Z,24.26
2023-02-04T18:56:18.877Z,24.15
2023-02-04T18:58:49.099Z,24.17
2023-02-04T19:01:23.805Z,24.15
2023-02-04T19:03:51.635Z,24.10
2023-02-04T19:06:18.083Z,24.13
2023-02-04T19:08:44.388Z,24.11
2023-02-04T19:11:29.442Z,24.03
2023-02-04T19:13:56.854Z,24.00
2023-02-04T19:16:26.680Z,23.96
2023-02-04T19:18:53.311Z,23.93
2023-02-04T19:21:27.151Z,23.89
2023-02-04T19:23:59.164Z,23.86
2023-02-04T19:26:29.888Z,23.85
2023-02-04T19:28:56.211Z,23.84
2023-02-04T19:31:22.646Z,23.82
2023-02-04T19:33:50.345Z,23.80
2023-02-04T19:36:35.524Z,23.78
2023-02-04T19:39:13.979Z,23.77
2023-02-04T19:41:45.833Z,23.74
2023-02-04T19:44:12.452Z,23.74
2023-02-04T19:46:38.987Z,23.71
2023-02-04T19:49:22.546Z,23.69
2023-02-04T19:51:51.318Z,23.68
2023-02-04T19:54:19.815Z,23.74
2023-02-04T19:56:46.142Z,23.68
2023-02-04T19:59:28.458Z,23.65
2023-02-04T20:02:20.791Z,23.66
2023-02-04T20:04:47.939Z,23.64
2023-02-04T20:07:21.841Z,23.63
2023-02-04T20:09:48.212Z,23.66
2023-02-04T20:12:15.464Z,23.70
2023-02-04T20:14:43.422Z,23.70
2023-02-04T20:17:17.177Z,23.75
2023-02-04T20:19:43.537Z,23.73
2023-02-04T20:22:18.983Z,23.68
2023-02-04T20:24:46.023Z,23.64
2023-02-04T20:27:19.034Z,23.66
2023-02-04T20:29:45.539Z,23.65
2023-02-04T20:32:27.881Z,23.59
2023-02-04T20:34:55.849Z,23.58
2023-02-04T20:37:23.254Z,23.63
2023-02-04T20:39:49.570Z,23.73
2023-02-04T20:42:35.105Z,23.81
2023-02-04T20:45:20.096Z,23.91
2023-02-04T20:47:46.514Z,23.98
2023-02-04T20:50:37.859Z,24.07
2023-02-04T20:53:13.026Z,24.13
2023-02-04T20:55:39.384Z,24.27
2023-02-04T20:58:10.969Z,24.43
2023-02-04T21:00:39.241Z,24.48
2023-02-04T21:03:14.790Z,24.56
2023-02-04T21:05:41.146Z,24.64
2023-02-04T21:08:21.341Z,24.59
2023-02-04T21:10:47.682Z,24.51
2023-02-04T21:13:14.015Z,24.52
2023-02-04T21:15:40.342Z,24.52
2023-02-04T21:18:06.678Z,24.53
2023-02-04T21:20:34.696Z,24.55
2023-02-04T21:23:01.040Z,24.57
2023-02-04T21:25:27.348Z,24.56
2023-02-04T21:27:54.639Z,24.60
2023-02-04T21:30:23.354Z,24.59
2023-02-04T21:32:49.807Z,24.59
2023-02-04T21:35:21.259Z,24.59
2023-02-04T21:37:47.571Z,24.61
2023-02-04T21:40:13.896Z,24.61
2023-02-04T21:42:40.212Z,24.60
2023-02-04T21:45:06.743Z,24.60
2023-02-04T21:47:33.324Z,24.58
2023-02-04T21:49:59.631Z,24.59
2023-02-04T21:52:26.119Z,24.56
2023-02-04T21:54:52.433Z,24.56
2023-02-04T21:57:18.744Z,24.56
2023-02-04T21:59:48.228Z,24.53
2023-02-04T22:02:14.577Z,24.51
2023-02-04T22:04:40.908Z,24.49
2023-02-04T22:07:07.257Z,24.50
2023-02-04T22:09:33.596Z,24.45
2023-02-04T22:11:59.912Z,24.44
2023-02-04T22:14:26.484Z,24.42
2023-02-04T22:16:52.795Z,24.42
2023-02-04T22:19:19.604Z,24.41
2023-02-04T22:21:45.926Z,24.38
2023-02-04T22:24:12.253Z,24.37
2023-02-04T22:26:38.572Z,24.35
2023-02-04T22:29:04.912Z,24.34
2023-02-04T22:31:31.537Z,24.31
2023-02-04T22:33:57.880Z,24.28
2023-02-04T22:36:24.223Z,24.26
2023-02-04T22:38:51.345Z,24.25
2023-02-04T22:41:17.943Z,24.22
2023-02-04T22:43:44.264Z,24.18
2023-02-04T22:46:10.622Z,24.18
2023-02-04T22:48:36.948Z,24.14
2023-02-04T22:51:03.733Z,24.10
2023-02-04T22:53:30.248Z,24.07
2023-02-04T22:55:56.585Z,24.05
2023-02-04T22:58:22.947Z,24.02
2023-02-04T23:00:49.282Z,24.08
2023-02-04T23:03:15.732Z,24.05
2023-02-04T23:05:42.044Z,24.02
2023-02-04T23:08:08.375Z,24.02
2023-02-04T23:10:34.689Z,23.97
2023-02-04T23:13:01.130Z,23.95
2023-02-04T23:15:27.486Z,23.97
2023-02-04T23:17:54.034Z,24.02
2023-02-04T23:20:20.359Z,24.10
2023-02-04T23:22:46.664Z,24.17
2023-02-04T23:25:12.986Z,24.24
2023-02-04T23:27:39.290Z,24.33
2023-02-04T23:30:06.345Z,24.44
2023-02-04T23:32:32.705Z,24.50
2023-02-04T23:34:59.342Z,24.55
2023-02-04T23:37:25.664Z,24.59
2023-02-04T23:39:51.994Z,24.74
2023-02-04T23:42:18.335Z,24.67
2023-02-04T23:44:44.679Z,24.66
2023-02-04T23:47:10.999Z,24.66
2023-02-04T23:49:37.322Z,24.68
2023-02-04T23:52:03.678Z,24.76
2023-02-04T23:54:30.024Z,24.72
2023-02-04T23:56:56.414Z,24.74
2023-02-04T23:59:22.732Z,24.77
